Friendship, Maine
Current Conditions -  °F | °C
As of 8:55 AM on Friday 24 Oct 2014 (Local Time) from KRKD Reporting Station
Overcast Overcast  
Wind Chill: 45°   Ceiling: 1200
Heat Index: 48°   Visibility: 7mi
Dew Point: 45°   Wind: 7mph
Humidity: 87%   Direction: 340°NNW
Pressure: 29.64"   Gusts: NA
Location:  43.98°N, 69.33°W
Report Text: KRKD 241255Z AUTO 34006KT 310V020 7SM OVC012 09/07 A2964 RMK AO1
Loading
Personal Weather Stations






























Interactive Weather Map
Tropical Storm Tracking
New forecast layout! Learn more

10-Day Weather Forecast

Advertisements
Track Severe Weather on mobile